createdAt,value
2018-10-15T00:00:17.907Z,981.66
2018-10-15T00:01:17.834Z,981.69
2018-10-15T00:02:17.804Z,981.68
2018-10-15T00:03:17.751Z,981.65
2018-10-15T00:04:17.697Z,981.66
2018-10-15T00:05:17.668Z,981.66
2018-10-15T00:06:17.611Z,981.61
2018-10-15T00:07:17.603Z,981.63
2018-10-15T00:08:17.540Z,981.66
2018-10-15T00:09:17.492Z,981.68
2018-10-15T00:10:17.457Z,981.59
2018-10-15T00:11:17.413Z,981.67
2018-10-15T00:12:17.367Z,981.67
2018-10-15T00:13:17.351Z,981.64
2018-10-15T00:14:17.294Z,981.66
2018-10-15T00:15:17.256Z,981.64
2018-10-15T00:16:17.218Z,981.62
2018-10-15T00:17:17.179Z,981.64
2018-10-15T00:18:17.148Z,981.64
2018-10-15T00:19:17.092Z,981.64
2018-10-15T00:20:17.062Z,981.64
2018-10-15T00:21:17.023Z,981.62
2018-10-15T00:22:16.979Z,981.66
2018-10-15T00:23:16.946Z,981.64
2018-10-15T00:24:16.956Z,981.63
2018-10-15T00:25:16.867Z,981.65
2018-10-15T00:26:16.850Z,981.70
2018-10-15T00:27:16.793Z,981.68
2018-10-15T00:28:16.782Z,981.71
2018-10-15T00:29:16.712Z,981.72
2018-10-15T00:30:16.668Z,981.73
2018-10-15T00:31:16.671Z,981.71
2018-10-15T00:32:16.625Z,981.73
2018-10-15T00:33:16.533Z,981.74
2018-10-15T00:34:16.494Z,981.66
2018-10-15T00:35:16.531Z,981.70
2018-10-15T00:36:16.421Z,981.71
2018-10-15T00:37:16.386Z,981.69
2018-10-15T00:38:16.347Z,981.72
2018-10-15T00:39:16.293Z,981.70
2018-10-15T00:40:16.263Z,981.73
2018-10-15T00:41:16.216Z,981.74
2018-10-15T00:42:16.170Z,981.74
2018-10-15T00:43:16.182Z,981.77
2018-10-15T00:44:16.131Z,981.76
2018-10-15T00:45:16.056Z,981.82
2018-10-15T00:46:16.008Z,981.82
2018-10-15T00:47:16.082Z,981.84
2018-10-15T00:48:15.930Z,981.86
2018-10-15T00:49:15.891Z,981.85
2018-10-15T00:50:15.864Z,981.83
2018-10-15T00:51:15.806Z,981.83
2018-10-15T00:52:15.810Z,981.81
2018-10-15T00:53:15.745Z,981.79
2018-10-15T00:54:15.710Z,981.82
2018-10-15T00:55:15.653Z,981.80
2018-10-15T00:56:15.604Z,981.81
2018-10-15T00:57:15.583Z,981.83
2018-10-15T00:58:15.515Z,981.82
2018-10-15T00:59:15.508Z,981.85
2018-10-15T01:00:15.440Z,981.81
2018-10-15T01:01:15.413Z,981.79
2018-10-15T01:02:15.371Z,981.77
2018-10-15T01:03:15.349Z,981.75
2018-10-15T01:04:15.286Z,981.75
2018-10-15T01:05:15.265Z,981.76
2018-10-15T01:06:15.233Z,981.74
2018-10-15T01:07:15.146Z,981.69
2018-10-15T01:08:15.124Z,981.73
2018-10-15T01:10:48.500Z,981.66
2018-10-15T01:11:48.369Z,981.71
2018-10-15T01:13:41.914Z,981.70
2018-10-15T01:14:41.848Z,981.67
2018-10-15T01:16:34.902Z,981.66
2018-10-15T01:17:34.840Z,981.67
2018-10-15T01:18:34.755Z,981.70
2018-10-15T01:19:34.713Z,981.69
2018-10-15T01:20:34.670Z,981.69
2018-10-15T01:21:34.646Z,981.69
2018-10-15T01:22:34.566Z,981.66
2018-10-15T01:23:34.555Z,981.66
2018-10-15T01:24:34.491Z,981.63
2018-10-15T01:25:34.468Z,981.65
2018-10-15T01:26:34.444Z,981.68
2018-10-15T01:27:34.409Z,981.69
2018-10-15T01:28:34.334Z,981.68
2018-10-15T01:29:34.368Z,981.63
2018-10-15T01:30:34.253Z,981.65
2018-10-15T01:31:34.307Z,981.66
2018-10-15T01:32:34.234Z,981.66
2018-10-15T01:33:34.125Z,981.65
2018-10-15T01:34:34.149Z,981.63
2018-10-15T01:35:34.075Z,981.67
2018-10-15T01:36:34.063Z,981.64
2018-10-15T01:37:34.035Z,981.65
2018-10-15T01:38:33.926Z,981.68
2018-10-15T01:39:33.877Z,981.67
2018-10-15T01:40:33.864Z,981.67
2018-10-15T01:41:33.811Z,981.66
2018-10-15T01:42:33.776Z,981.66
2018-10-15T01:43:33.725Z,981.66
2018-10-15T01:44:33.705Z,981.61
2018-10-15T01:45:33.674Z,981.63
2018-10-15T01:46:33.601Z,981.61
2018-10-15T01:47:33.581Z,981.63
2018-10-15T01:48:33.514Z,981.66
2018-10-15T01:49:33.547Z,981.65
2018-10-15T01:50:33.460Z,981.67
2018-10-15T01:51:33.407Z,981.68
2018-10-15T01:52:33.357Z,981.69
2018-10-15T01:53:33.306Z,981.68
2018-10-15T01:54:33.311Z,981.66
2018-10-15T01:55:33.306Z,981.69
2018-10-15T01:56:33.206Z,981.66
2018-10-15T01:57:33.176Z,981.70
2018-10-15T01:58:33.154Z,981.70
2018-10-15T01:59:33.090Z,981.70
2018-10-15T02:00:33.037Z,981.70
2018-10-15T02:01:32.983Z,981.68
2018-10-15T02:02:32.993Z,981.67
2018-10-15T02:03:32.907Z,981.68
2018-10-15T02:04:32.903Z,981.67
2018-10-15T02:05:32.847Z,981.68
2018-10-15T02:06:32.806Z,981.67
2018-10-15T02:07:32.774Z,981.68
2018-10-15T02:08:32.729Z,981.66
2018-10-15T02:09:32.655Z,981.68
2018-10-15T02:10:32.638Z,981.67
2018-10-15T02:11:32.586Z,981.61
2018-10-15T02:12:32.537Z,981.61
2018-10-15T02:13:32.501Z,981.61
2018-10-15T02:14:32.467Z,981.64
2018-10-15T02:15:32.419Z,981.63
2018-10-15T02:16:32.379Z,981.64
2018-10-15T02:17:32.333Z,981.61
2018-10-15T02:18:32.313Z,981.58
2018-10-15T02:19:32.266Z,981.62
2018-10-15T02:20:32.211Z,981.60
2018-10-15T02:21:32.189Z,981.57
2018-10-15T02:22:32.149Z,981.55
2018-10-15T02:23:32.119Z,981.57
2018-10-15T02:24:32.060Z,981.55
2018-10-15T02:25:32.010Z,981.55
2018-10-15T02:26:31.994Z,981.56
2018-10-15T02:27:31.935Z,981.57
2018-10-15T02:28:31.881Z,981.54
2018-10-15T02:29:31.880Z,981.57
2018-10-15T02:30:31.848Z,981.62
2018-10-15T02:31:31.770Z,981.62
2018-10-15T02:32:31.762Z,981.65
2018-10-15T02:33:31.693Z,981.68
2018-10-15T02:34:31.659Z,981.65
2018-10-15T02:35:31.597Z,981.70
2018-10-15T02:36:31.558Z,981.64
2018-10-15T02:37:31.513Z,981.67
2018-10-15T02:38:31.502Z,981.68
2018-10-15T02:39:31.447Z,981.64
2018-10-15T02:40:31.422Z,981.66
2018-10-15T02:41:31.359Z,981.69
2018-10-15T02:42:31.303Z,981.66
2018-10-15T02:43:31.287Z,981.67
2018-10-15T02:44:31.219Z,981.71
2018-10-15T02:45:31.201Z,981.71
2018-10-15T02:46:31.157Z,981.75
2018-10-15T02:47:31.103Z,981.73
2018-10-15T02:48:31.060Z,981.73
2018-10-15T02:49:31.024Z,981.76
2018-10-15T02:50:30.974Z,981.76
2018-10-15T02:51:30.974Z,981.75
2018-10-15T02:52:30.914Z,981.76
2018-10-15T02:53:30.858Z,981.76
2018-10-15T02:54:30.856Z,981.76
2018-10-15T02:55:30.784Z,981.76
2018-10-15T02:56:30.757Z,981.74
2018-10-15T02:57:30.743Z,981.72
2018-10-15T02:58:30.668Z,981.75
2018-10-15T02:59:30.627Z,981.74
2018-10-15T03:00:30.602Z,981.76
2018-10-15T03:01:30.544Z,981.74
2018-10-15T03:02:30.530Z,981.76
2018-10-15T03:03:30.453Z,981.77
2018-10-15T03:04:30.455Z,981.74
2018-10-15T03:05:30.397Z,981.83
2018-10-15T03:06:30.343Z,981.79
2018-10-15T03:07:30.316Z,981.79
2018-10-15T03:08:30.283Z,981.83
2018-10-15T03:09:30.215Z,981.87
2018-10-15T03:10:30.172Z,981.84
2018-10-15T03:11:30.150Z,981.88
2018-10-15T03:12:30.098Z,981.87
2018-10-15T03:13:30.050Z,981.89
2018-10-15T03:14:30.004Z,981.92
2018-10-15T03:15:29.973Z,981.92
2018-10-15T03:16:29.931Z,981.91
2018-10-15T03:17:29.869Z,981.91
2018-10-15T03:18:29.856Z,981.88
2018-10-15T03:19:29.839Z,981.85
2018-10-15T03:20:29.756Z,981.83
2018-10-15T03:21:29.723Z,981.81
2018-10-15T03:22:29.666Z,981.81
2018-10-15T03:23:29.660Z,981.78
2018-10-15T03:24:29.625Z,981.81
2018-10-15T03:25:29.559Z,981.78
2018-10-15T03:26:29.511Z,981.81
2018-10-15T03:27:29.540Z,981.82
2018-10-15T03:28:29.507Z,981.81
2018-10-15T03:29:29.384Z,981.81
2018-10-15T03:30:29.359Z,981.90
2018-10-15T03:31:29.298Z,981.89
2018-10-15T03:32:29.272Z,981.91
2018-10-15T03:33:29.262Z,981.93
2018-10-15T03:34:29.289Z,981.97
2018-10-15T03:35:29.151Z,981.97
2018-10-15T03:36:29.109Z,982.01
2018-10-15T03:37:29.092Z,982.06
2018-10-15T03:38:29.047Z,982.07
2018-10-15T03:39:29.008Z,982.05
2018-10-15T03:40:28.949Z,982.04
2018-10-15T03:41:28.908Z,982.02
2018-10-15T03:42:28.906Z,982.04
2018-10-15T03:43:28.834Z,982.01
2018-10-15T03:44:28.787Z,982.04
2018-10-15T03:45:28.754Z,982.07
2018-10-15T03:46:28.681Z,982.07
2018-10-15T03:47:28.633Z,982.06
2018-10-15T03:48:28.610Z,982.04
2018-10-15T03:49:28.576Z,982.03
2018-10-15T03:50:28.573Z,982.03
2018-10-15T03:51:28.475Z,981.99
2018-10-15T03:52:28.438Z,982.00
2018-10-15T03:53:28.411Z,982.01
2018-10-15T03:54:28.360Z,982.01
2018-10-15T03:55:28.321Z,981.98
2018-10-15T03:56:28.271Z,981.98
2018-10-15T03:57:28.234Z,982.00
2018-10-15T03:58:28.242Z,981.96
2018-10-15T03:59:28.179Z,982.00
2018-10-15T04:00:28.140Z,982.02
2018-10-15T04:01:28.081Z,982.00
2018-10-15T04:02:28.117Z,982.02
2018-10-15T04:03:28.037Z,982.03
2018-10-15T04:04:28.070Z,982.01
2018-10-15T04:05:27.900Z,982.02
2018-10-15T04:06:27.860Z,982.00
2018-10-15T04:07:27.864Z,982.02
2018-10-15T04:08:27.826Z,981.98
2018-10-15T04:09:27.766Z,982.05
2018-10-15T04:10:27.709Z,982.01
2018-10-15T04:11:27.656Z,982.02
2018-10-15T04:12:27.631Z,982.10
2018-10-15T04:13:27.659Z,982.10
2018-10-15T04:14:27.605Z,982.12
2018-10-15T04:15:27.505Z,982.14
2018-10-15T04:16:27.452Z,982.12
2018-10-15T04:17:27.412Z,982.14
2018-10-15T04:18:27.366Z,982.13
2018-10-15T04:19:27.339Z,982.15
2018-10-15T04:20:27.294Z,982.13
2018-10-15T04:21:27.249Z,982.11
2018-10-15T04:22:27.195Z,982.14
2018-10-15T04:23:27.165Z,982.12
2018-10-15T04:24:27.117Z,982.14
2018-10-15T04:25:27.074Z,982.11
2018-10-15T04:26:27.048Z,982.15
2018-10-15T04:27:27.010Z,982.13
2018-10-15T04:28:26.952Z,982.16
2018-10-15T04:29:26.913Z,982.20
2018-10-15T04:30:26.873Z,982.20
2018-10-15T04:31:26.817Z,982.19
2018-10-15T04:32:26.783Z,982.19
2018-10-15T04:33:26.785Z,982.23
2018-10-15T04:34:26.699Z,982.22
2018-10-15T04:35:26.667Z,982.21
2018-10-15T04:36:26.655Z,982.20
2018-10-15T04:37:26.590Z,982.22
2018-10-15T04:38:26.642Z,982.23
2018-10-15T04:39:26.513Z,982.20
2018-10-15T04:40:26.483Z,982.18
2018-10-15T04:41:26.532Z,982.24
2018-10-15T04:42:26.383Z,982.25
2018-10-15T04:43:26.369Z,982.26
2018-10-15T04:44:26.354Z,982.25
2018-10-15T04:45:26.272Z,982.27
2018-10-15T04:46:26.233Z,982.22
2018-10-15T04:47:26.285Z,982.19
2018-10-15T04:48:26.126Z,982.17
2018-10-15T04:49:26.329Z,982.18
2018-10-15T04:50:26.060Z,982.18
2018-10-15T04:51:26.072Z,982.17
2018-10-15T04:52:26.001Z,982.16
2018-10-15T04:53:25.919Z,982.20
2018-10-15T04:54:25.886Z,982.20
2018-10-15T04:55:25.924Z,982.19
2018-10-15T04:56:25.813Z,982.21
2018-10-15T04:57:25.758Z,982.19
2018-10-15T04:58:25.743Z,982.16
2018-10-15T04:59:25.700Z,982.20
2018-10-15T05:00:25.714Z,982.16
2018-10-15T05:01:25.602Z,982.23
2018-10-15T05:02:25.551Z,982.22
2018-10-15T05:03:25.516Z,982.21
2018-10-15T05:04:25.496Z,982.23
2018-10-15T05:05:25.460Z,982.19
2018-10-15T05:06:25.403Z,982.22
2018-10-15T05:07:25.345Z,982.23
2018-10-15T05:08:25.331Z,982.20
2018-10-15T05:09:25.358Z,982.25
2018-10-15T05:10:25.210Z,982.31
2018-10-15T05:11:25.237Z,982.27
2018-10-15T05:12:25.139Z,982.24
2018-10-15T05:13:25.086Z,982.27
2018-10-15T05:14:25.054Z,982.27
2018-10-15T05:15:25.030Z,982.24
2018-10-15T05:16:24.964Z,982.25
2018-10-15T05:17:25.034Z,982.24
2018-10-15T05:18:24.881Z,982.27
2018-10-15T05:19:24.874Z,982.26
2018-10-15T05:20:24.810Z,982.28
2018-10-15T05:21:24.938Z,982.30
2018-10-15T05:22:24.720Z,982.27
2018-10-15T05:23:24.679Z,982.25
2018-10-15T05:24:24.633Z,982.27
2018-10-15T05:25:24.601Z,982.22
2018-10-15T05:26:24.555Z,982.30
2018-10-15T05:27:24.526Z,982.25
2018-10-15T05:28:24.478Z,982.31
2018-10-15T05:29:24.437Z,982.30
2018-10-15T05:30:24.512Z,982.35
2018-10-15T05:31:24.342Z,982.35
2018-10-15T05:32:24.296Z,982.40
2018-10-15T05:33:24.278Z,982.34
2018-10-15T05:34:24.223Z,982.32
2018-10-15T05:35:24.212Z,982.36
2018-10-15T05:36:24.144Z,982.36
2018-10-15T05:37:24.105Z,982.40
2018-10-15T05:38:24.082Z,982.39
2018-10-15T05:39:24.017Z,982.40
2018-10-15T05:40:24.033Z,982.36
2018-10-15T05:41:23.961Z,982.37
2018-10-15T05:42:23.893Z,982.36
2018-10-15T05:43:23.872Z,982.37
2018-10-15T05:44:23.828Z,982.37
2018-10-15T05:45:23.752Z,982.38
2018-10-15T05:46:23.738Z,982.34
2018-10-15T05:47:23.717Z,982.36
2018-10-15T05:48:23.632Z,982.39
2018-10-15T05:49:23.590Z,982.37
2018-10-15T05:50:23.551Z,982.40
2018-10-15T05:51:23.549Z,982.37
2018-10-15T05:52:23.480Z,982.39
2018-10-15T05:53:23.449Z,982.39
2018-10-15T05:54:23.476Z,982.38
2018-10-15T05:55:23.372Z,982.41
2018-10-15T05:56:23.305Z,982.40
2018-10-15T05:57:23.285Z,982.43
2018-10-15T05:58:23.211Z,982.43
2018-10-15T05:59:23.196Z,982.43
2018-10-15T06:00:23.349Z,982.44
2018-10-15T06:01:23.099Z,982.45
2018-10-15T06:02:23.097Z,982.52
2018-10-15T06:03:23.021Z,982.49
2018-10-15T06:04:22.996Z,982.49
2018-10-15T06:05:22.950Z,982.48
2018-10-15T06:06:22.984Z,982.47
2018-10-15T06:07:22.883Z,982.49
2018-10-15T06:08:22.850Z,982.50
2018-10-15T06:09:22.775Z,982.51
2018-10-15T06:10:22.746Z,982.49
2018-10-15T06:11:22.700Z,982.53
2018-10-15T06:12:22.751Z,982.51
2018-10-15T06:13:22.635Z,982.50
2018-10-15T06:14:22.567Z,982.48
2018-10-15T06:15:22.532Z,982.52
2018-10-15T06:16:22.488Z,982.49
2018-10-15T06:17:22.434Z,982.52
2018-10-15T06:18:22.441Z,982.53
2018-10-15T06:19:22.388Z,982.59
2018-10-15T06:20:22.316Z,982.58
2018-10-15T06:21:22.272Z,982.64
2018-10-15T06:22:22.231Z,982.54
2018-10-15T06:23:22.194Z,982.56
2018-10-15T06:24:22.182Z,982.56
2018-10-15T06:25:22.173Z,982.54
2018-10-15T06:26:22.080Z,982.56
2018-10-15T06:27:22.060Z,982.56
2018-10-15T06:28:22.040Z,982.58
2018-10-15T06:29:21.974Z,982.56
2018-10-15T06:30:21.960Z,982.52
2018-10-15T06:31:21.864Z,982.61
2018-10-15T06:32:21.840Z,982.59
2018-10-15T06:33:21.783Z,982.61
2018-10-15T06:34:21.771Z,982.57
2018-10-15T06:35:21.720Z,982.61
2018-10-15T06:36:21.742Z,982.58
2018-10-15T06:37:21.684Z,982.57
2018-10-15T06:38:21.706Z,982.64
2018-10-15T06:39:21.622Z,982.66
2018-10-15T06:40:21.507Z,982.67
2018-10-15T06:41:21.597Z,982.68
2018-10-15T06:42:21.515Z,982.67
2018-10-15T06:43:21.377Z,982.64
2018-10-15T06:44:21.364Z,982.64
2018-10-15T06:45:21.481Z,982.65
2018-10-15T06:46:21.365Z,982.67
2018-10-15T06:47:21.318Z,982.70
2018-10-15T06:48:21.189Z,982.65
2018-10-15T06:49:21.227Z,982.65
2018-10-15T06:50:21.090Z,982.63
2018-10-15T06:51:21.141Z,982.69
2018-10-15T06:52:21.018Z,982.64
2018-10-15T06:53:21.072Z,982.63
2018-10-15T06:54:20.940Z,982.62
2018-10-15T06:55:20.970Z,982.67
2018-10-15T06:56:20.839Z,982.69
2018-10-15T06:57:20.889Z,982.70
2018-10-15T06:58:20.773Z,982.73
2018-10-15T06:59:20.923Z,982.67
2018-10-15T07:00:20.711Z,982.66
2018-10-15T07:01:20.745Z,982.68
2018-10-15T07:02:20.698Z,982.66
2018-10-15T07:03:20.594Z,982.71
2018-10-15T07:04:20.629Z,982.73
2018-10-15T07:05:20.515Z,982.70
2018-10-15T07:06:20.519Z,982.77
2018-10-15T07:07:20.651Z,982.74
2018-10-15T07:08:20.429Z,982.75
2018-10-15T07:09:20.381Z,982.73
2018-10-15T07:10:20.407Z,982.77
2018-10-15T07:11:20.322Z,982.74
2018-10-15T07:12:20.338Z,982.73
2018-10-15T07:13:20.396Z,982.81
2018-10-15T07:14:20.381Z,982.81
2018-10-15T07:15:20.179Z,982.82
2018-10-15T07:16:20.222Z,982.85
2018-10-15T07:17:20.134Z,982.87
2018-10-15T07:18:20.149Z,982.90
2018-10-15T07:19:20.078Z,982.94
2018-10-15T07:20:20.118Z,982.92
2018-10-15T07:21:19.986Z,982.92
2018-10-15T07:22:20.031Z,982.92
2018-10-15T07:23:19.922Z,982.95
2018-10-15T07:24:19.940Z,982.94
2018-10-15T07:25:19.865Z,982.97
2018-10-15T07:26:19.929Z,982.97
2018-10-15T07:27:19.810Z,982.97
2018-10-15T07:28:19.824Z,983.00
2018-10-15T07:29:19.734Z,983.05
2018-10-15T07:30:19.766Z,983.06
2018-10-15T07:31:19.669Z,983.10
2018-10-15T07:32:19.683Z,983.16
2018-10-15T07:33:19.654Z,983.13
2018-10-15T07:34:19.586Z,983.14
2018-10-15T07:35:19.547Z,983.15
2018-10-15T07:36:19.553Z,983.19
2018-10-15T07:37:19.483Z,983.21
2018-10-15T07:38:19.542Z,983.23
2018-10-15T07:39:19.511Z,983.24
2018-10-15T07:40:19.507Z,983.25
2018-10-15T07:41:19.360Z,983.23
2018-10-15T07:42:19.405Z,983.26
2018-10-15T07:43:19.300Z,983.25
2018-10-15T07:44:19.419Z,983.25
2018-10-15T07:45:19.302Z,983.28
2018-10-15T07:46:19.281Z,983.29
2018-10-15T07:47:19.175Z,983.33
2018-10-15T07:48:19.241Z,983.37
2018-10-15T07:49:19.125Z,983.37
2018-10-15T07:50:19.125Z,983.35
2018-10-15T07:51:19.058Z,983.35
2018-10-15T07:52:19.085Z,983.35
2018-10-15T07:53:19.030Z,983.35
2018-10-15T07:54:19.092Z,983.37
2018-10-15T07:55:18.948Z,983.42
2018-10-15T07:56:18.924Z,983.39
2018-10-15T07:57:18.878Z,983.36
2018-10-15T07:58:18.924Z,983.37
2018-10-15T07:59:18.867Z,983.42
2018-10-15T08:00:18.815Z,983.45
2018-10-15T08:01:18.764Z,983.43
2018-10-15T08:02:18.796Z,983.47
2018-10-15T08:03:18.701Z,983.45
2018-10-15T08:04:18.770Z,983.46
2018-10-15T08:05:18.700Z,983.43
2018-10-15T08:06:18.611Z,983.41
2018-10-15T08:07:18.584Z,983.45
2018-10-15T08:08:18.675Z,983.42
2018-10-15T08:09:18.534Z,983.50
2018-10-15T08:10:18.635Z,983.47
2018-10-15T08:11:18.558Z,983.51
2018-10-15T08:12:18.478Z,983.47
2018-10-15T08:13:18.422Z,983.49
2018-10-15T08:14:18.519Z,983.51
2018-10-15T08:15:18.422Z,983.49
2018-10-15T08:16:18.392Z,983.50
2018-10-15T08:17:18.324Z,983.50
2018-10-15T08:18:18.292Z,983.53
2018-10-15T08:19:18.253Z,983.49
2018-10-15T08:20:18.332Z,983.47
2018-10-15T08:21:18.214Z,983.50
2018-10-15T08:22:18.206Z,983.48
2018-10-15T08:23:18.179Z,983.48
2018-10-15T08:24:18.128Z,983.51
2018-10-15T08:25:18.105Z,983.49
2018-10-15T08:26:18.096Z,983.51
2018-10-15T08:27:18.062Z,983.48
2018-10-15T08:28:18.015Z,983.50
2018-10-15T08:29:17.970Z,983.51
2018-10-15T08:30:17.952Z,983.48
2018-10-15T08:31:17.926Z,983.46
2018-10-15T08:32:17.912Z,983.51
2018-10-15T08:33:17.867Z,983.47
2018-10-15T08:34:17.837Z,983.51
2018-10-15T08:35:17.834Z,983.51
2018-10-15T08:36:17.794Z,983.51
2018-10-15T08:37:17.772Z,983.48
2018-10-15T08:38:17.741Z,983.50
2018-10-15T08:39:17.708Z,983.47
2018-10-15T08:40:17.691Z,983.47
2018-10-15T08:41:17.771Z,983.46
2018-10-15T08:42:17.690Z,983.49
2018-10-15T08:43:17.604Z,983.51
2018-10-15T08:44:17.618Z,983.51
2018-10-15T08:45:17.579Z,983.46
2018-10-15T08:46:17.553Z,983.45
2018-10-15T08:47:17.519Z,983.43
2018-10-15T08:48:17.502Z,983.44
2018-10-15T08:49:17.475Z,983.36
2018-10-15T08:50:17.456Z,983.34
2018-10-15T08:51:17.424Z,983.40
2018-10-15T08:52:17.422Z,983.38
2018-10-15T08:53:17.379Z,983.39
2018-10-15T08:54:17.417Z,983.34
2018-10-15T08:55:17.339Z,983.34
2018-10-15T08:56:17.306Z,983.39
2018-10-15T08:57:17.296Z,983.36
2018-10-15T08:58:17.344Z,983.37
2018-10-15T08:59:17.247Z,983.35
2018-10-15T09:00:17.238Z,983.38
2018-10-15T09:01:17.196Z,983.38
2018-10-15T09:02:17.173Z,983.41
2018-10-15T09:03:17.151Z,983.48
2018-10-15T09:04:17.128Z,983.48
2018-10-15T09:05:17.109Z,983.50
2018-10-15T09:06:17.102Z,983.46
2018-10-15T09:07:17.151Z,983.43
2018-10-15T09:08:17.205Z,983.41
2018-10-15T09:09:17.198Z,983.42
2018-10-15T09:10:17.000Z,983.45
2018-10-15T09:11:16.979Z,983.39
2018-10-15T09:12:17.004Z,983.37
2018-10-15T09:13:17.025Z,983.35
2018-10-15T09:14:16.927Z,983.36
2018-10-15T09:15:16.897Z,983.33
2018-10-15T09:16:16.881Z,983.34
2018-10-15T09:17:16.880Z,983.35
2018-10-15T09:18:16.841Z,983.38
2018-10-15T09:19:16.811Z,983.36
2018-10-15T09:20:16.813Z,983.35
2018-10-15T09:21:16.835Z,983.38
2018-10-15T09:22:16.764Z,983.39
2018-10-15T09:23:16.733Z,983.33
2018-10-15T09:24:16.738Z,983.31
2018-10-15T09:25:16.723Z,983.33
2018-10-15T09:26:16.686Z,983.30
2018-10-15T09:27:16.754Z,983.29
2018-10-15T09:28:16.667Z,983.31
2018-10-15T09:29:16.620Z,983.29
2018-10-15T09:30:16.608Z,983.28
2018-10-15T09:31:16.606Z,983.25
2018-10-15T09:32:16.564Z,983.21
2018-10-15T09:33:16.545Z,983.20
2018-10-15T09:34:16.549Z,983.24
2018-10-15T09:35:16.582Z,983.23
2018-10-15T09:36:16.480Z,983.25
2018-10-15T09:37:16.457Z,983.26
2018-10-15T09:38:16.451Z,983.26
2018-10-15T09:39:16.433Z,983.31
2018-10-15T09:40:16.400Z,983.27
2018-10-15T09:41:16.418Z,983.30
2018-10-15T09:42:16.352Z,983.35
2018-10-15T09:43:16.336Z,983.32
2018-10-15T09:44:16.325Z,983.33
2018-10-15T09:45:16.319Z,983.28
2018-10-15T09:46:16.287Z,983.25
2018-10-15T09:47:16.254Z,983.28
2018-10-15T09:48:16.240Z,983.26
2018-10-15T09:49:16.278Z,983.29
2018-10-15T09:50:16.220Z,983.28
2018-10-15T09:51:16.188Z,983.25
2018-10-15T09:52:16.175Z,983.24
2018-10-15T09:53:16.225Z,983.23
2018-10-15T09:54:16.132Z,983.19
2018-10-15T09:55:16.111Z,983.26
2018-10-15T09:56:16.085Z,983.28
2018-10-15T09:57:16.084Z,983.25
2018-10-15T09:58:16.051Z,983.27
2018-10-15T09:59:16.028Z,983.22
2018-10-15T10:00:15.999Z,983.25
2018-10-15T10:01:16.016Z,983.17
2018-10-15T10:02:15.971Z,983.17
2018-10-15T10:03:15.956Z,983.15
2018-10-15T10:04:15.924Z,983.20
2018-10-15T10:05:15.906Z,983.20
2018-10-15T10:06:15.917Z,983.23
2018-10-15T10:07:15.873Z,983.21
2018-10-15T10:08:15.853Z,983.25
2018-10-15T10:09:15.825Z,983.18
2018-10-15T10:10:15.802Z,983.26
2018-10-15T10:11:15.783Z,983.25
2018-10-15T10:12:15.894Z,983.28
2018-10-15T10:13:15.733Z,983.29
2018-10-15T10:14:15.766Z,983.27
2018-10-15T10:15:15.714Z,983.29
2018-10-15T10:16:15.683Z,983.26
2018-10-15T10:17:15.746Z,983.30
2018-10-15T10:18:15.838Z,983.29
2018-10-15T10:19:15.624Z,983.33
2018-10-15T10:20:15.604Z,983.33
2018-10-15T10:21:15.574Z,983.26
2018-10-15T10:22:15.610Z,983.29
2018-10-15T10:23:15.583Z,983.28
2018-10-15T10:24:15.528Z,983.26
2018-10-15T10:25:15.524Z,983.21
2018-10-15T10:26:15.494Z,983.21
2018-10-15T10:27:15.499Z,983.20
2018-10-15T10:28:15.517Z,983.20
2018-10-15T10:29:15.441Z,983.21
2018-10-15T10:30:15.467Z,983.18
2018-10-15T10:31:15.376Z,983.21
2018-10-15T10:32:15.446Z,983.14
2018-10-15T10:33:15.342Z,983.17
2018-10-15T10:34:15.325Z,983.13
2018-10-15T10:35:15.348Z,983.14
2018-10-15T10:36:15.295Z,983.12
2018-10-15T10:37:15.267Z,983.11
2018-10-15T10:38:15.241Z,983.11
2018-10-15T10:39:15.231Z,983.12
2018-10-15T10:40:15.235Z,983.06
2018-10-15T10:41:15.193Z,983.05
2018-10-15T10:42:15.241Z,983.01
2018-10-15T10:43:15.142Z,983.03
2018-10-15T10:44:15.129Z,982.98
2018-10-15T10:45:15.117Z,982.97
2018-10-15T10:46:15.080Z,982.99
2018-10-15T10:47:15.112Z,982.98
2018-10-15T10:48:15.059Z,982.94
2018-10-15T10:49:15.023Z,982.95
2018-10-15T10:50:14.992Z,982.97
2018-10-15T10:51:14.986Z,982.93
2018-10-15T10:52:14.989Z,982.88
2018-10-15T10:53:14.946Z,982.88
2018-10-15T10:54:14.934Z,982.92
2018-10-15T10:55:14.913Z,982.90
2018-10-15T10:56:14.884Z,982.88
2018-10-15T10:57:14.866Z,982.88
2018-10-15T10:58:14.854Z,982.88
2018-10-15T10:59:14.842Z,982.90
2018-10-15T11:00:14.824Z,982.88
2018-10-15T11:01:14.796Z,982.85
2018-10-15T11:02:14.898Z,982.83
2018-10-15T11:03:14.765Z,982.84
2018-10-15T11:04:14.743Z,982.81
2018-10-15T11:05:14.760Z,982.83
2018-10-15T11:06:14.766Z,982.86
2018-10-15T11:07:14.681Z,982.87
2018-10-15T11:08:14.778Z,982.89
2018-10-15T11:09:14.633Z,982.88
2018-10-15T11:10:14.616Z,982.83
2018-10-15T11:11:14.592Z,982.83
2018-10-15T11:12:14.576Z,982.83
2018-10-15T11:13:14.549Z,982.79
2018-10-15T11:14:14.543Z,982.82
2018-10-15T11:15:14.509Z,982.80
2018-10-15T11:16:14.535Z,982.89
2018-10-15T11:17:14.505Z,982.82
2018-10-15T11:18:14.499Z,982.79
2018-10-15T11:19:14.453Z,982.79
2018-10-15T11:20:14.423Z,982.77
2018-10-15T11:21:14.523Z,982.78
2018-10-15T11:22:14.437Z,982.75
2018-10-15T11:23:14.353Z,982.75
2018-10-15T11:24:14.427Z,982.73
2018-10-15T11:25:14.342Z,982.78
2018-10-15T11:26:14.307Z,982.77
2018-10-15T11:27:14.293Z,982.74
2018-10-15T11:28:14.271Z,982.75
2018-10-15T11:29:14.245Z,982.74
2018-10-15T11:30:14.230Z,982.74
2018-10-15T11:31:14.202Z,982.76
2018-10-15T11:32:14.198Z,982.80
2018-10-15T11:33:14.163Z,982.73
2018-10-15T11:34:14.232Z,982.76
2018-10-15T11:35:14.144Z,982.78
2018-10-15T11:36:14.104Z,982.79
2018-10-15T11:37:14.090Z,982.77
2018-10-15T11:38:14.055Z,982.79
2018-10-15T11:39:14.044Z,982.80
2018-10-15T11:40:14.016Z,982.73
2018-10-15T11:41:14.006Z,982.74
2018-10-15T11:42:13.972Z,982.73
2018-10-15T11:43:13.977Z,982.72
2018-10-15T11:44:14.098Z,982.71
2018-10-15T11:45:13.913Z,982.74
2018-10-15T11:46:13.900Z,982.74
2018-10-15T11:47:13.879Z,982.73
2018-10-15T11:48:13.859Z,982.74
2018-10-15T11:49:13.837Z,982.72
2018-10-15T11:50:13.823Z,982.74
2018-10-15T11:51:13.806Z,982.73
2018-10-15T11:52:13.784Z,982.72
2018-10-15T11:53:13.764Z,982.68
2018-10-15T11:54:13.814Z,982.67
2018-10-15T11:55:13.734Z,982.67
2018-10-15T11:56:13.732Z,982.69
2018-10-15T11:57:13.688Z,982.68
2018-10-15T11:58:13.659Z,982.69
2018-10-15T11:59:13.695Z,982.68
2018-10-15T12:00:13.632Z,982.73
2018-10-15T12:01:13.589Z,982.76
2018-10-15T12:02:13.581Z,982.76
2018-10-15T12:03:13.556Z,982.72
2018-10-15T12:04:13.536Z,982.74
2018-10-15T12:05:13.512Z,982.70
2018-10-15T12:06:13.498Z,982.72
2018-10-15T12:07:13.480Z,982.71
2018-10-15T12:08:13.454Z,982.69
2018-10-15T12:09:13.425Z,982.69
2018-10-15T12:10:13.399Z,982.67
2018-10-15T12:11:13.441Z,982.67
2018-10-15T12:12:13.367Z,982.61
2018-10-15T12:13:13.337Z,982.61
2018-10-15T12:14:13.321Z,982.62
2018-10-15T12:15:13.305Z,982.62
2018-10-15T12:16:13.282Z,982.60
2018-10-15T12:17:13.256Z,982.59
2018-10-15T12:18:13.253Z,982.55
2018-10-15T12:19:13.224Z,982.59
2018-10-15T12:20:13.196Z,982.54
2018-10-15T12:21:13.182Z,982.52
2018-10-15T12:22:13.166Z,982.54
2018-10-15T12:23:13.134Z,982.54
2018-10-15T12:24:13.116Z,982.54
2018-10-15T12:25:13.111Z,982.52
2018-10-15T12:26:13.080Z,982.51
2018-10-15T12:27:13.064Z,982.50
2018-10-15T12:28:13.080Z,982.51
2018-10-15T12:29:13.029Z,982.51
2018-10-15T12:30:13.007Z,982.52
2018-10-15T12:31:13.022Z,982.49